Island Tugger — CFH8596 — position and weather

sailwx.info

Track history (hours):
 
Tides and Currents Weather Stations Pressure Air Temp Water Temp Dewpoint Dewpoint Depression Visibility Wind Speed Wind Dir Waves Ship Positions

Island Tugger

Last reported at 2017-Oct-14 00:09 UTC. Time now 2017-Oct-19 11:26 UTC.
Position N 49°17' W 122°58'.

Length 32 m; draft 4.3 m.

Type: Tug. MMSI: 316015269.

Date/timePositionNaut miles runAvg speedWind from/ knotsBaromVisibWave heightAir tempDewpointWater temp
2017-Oct-14 00:09N 49°17' W 122°58'0 0.0
2017-Oct-14 00:00N 49°17' W 122°58'0 0.0
2017-Oct-13 23:28N 49°17' W 122°58'0 0.0
2017-Oct-13 23:00N 49°17' W 122°58'0 0.0
2017-Oct-13 22:30N 49°17' W 122°58'0 0.2
2017-Oct-13 22:00N 49°18' W 122°58'2 4.6
2017-Oct-13 21:30N 49°18' W 123°02'2 3.5
2017-Oct-13 21:00N 49°18' W 123°05'3 6.9
2017-Oct-13 20:30N 49°19' W 123°10'4 7.0
2017-Oct-13 20:00N 49°19' W 123°15'3 7.0
2017-Oct-13 19:30N 49°16' W 123°18'4 7.7
2017-Oct-13 19:00N 49°12' W 123°19'4 7.5
2017-Oct-13 18:30N 49°08' W 123°20'4 7.1
2017-Oct-13 17:59N 49°05' W 123°20'4 8.1
2017-Oct-13 17:30N 49°02' W 123°16'4 8.1
2017-Oct-13 17:00N 48°59' W 123°11'4 7.5
2017-Oct-13 16:30N 48°56' W 123°07'4 7.2
2017-Oct-13 16:00N 48°54' W 123°03'4 7.4
2017-Oct-13 15:29N 48°51' W 122°58'4 7.3
2017-Oct-13 14:59N 48°49' W 122°54'4 7.3
2017-Oct-13 14:30N 48°47' W 122°50'4 7.1
2017-Oct-13 13:54N 48°44' W 122°45'3 6.7
2017-Oct-13 13:30N 48°42' W 122°43'3 6.2
2017-Oct-13 13:00N 48°39' W 122°43'3 5.6
2017-Oct-13 12:30N 48°36' W 122°45'3 5.1
2017-Oct-13 12:00N 48°34' W 122°45'2 4.8
2017-Oct-13 11:30N 48°31' W 122°44'2 4.9
2017-Oct-13 11:00N 48°29' W 122°44'2 5.0
2017-Oct-13 10:30N 48°26' W 122°44'3 5.4
2017-Oct-13 09:59N 48°24' W 122°44'3 5.9
2017-Oct-13 09:28N 48°21' W 122°45'19 7.5
2017-Oct-13 06:55N 48°02' W 122°38'3 8.1
2017-Oct-13 06:30N 47°59' W 122°35'4 7.9
2017-Oct-13 06:00N 47°57' W 122°31'4 7.4
2017-Oct-13 05:30N 47°53' W 122°28'4 7.7
2017-Oct-13 05:00N 47°50' W 122°27'4 7.9
2017-Oct-13 04:30N 47°46' W 122°26'4 7.7
2017-Oct-13 04:00N 47°42' W 122°27'4 7.2
2017-Oct-13 03:30N 47°38' W 122°26'4 7.5
2017-Oct-13 03:00N 47°36' W 122°22'1 1.4
2017-Oct-13 02:30N 47°35' W 122°21'0 0.0
2017-Oct-13 02:00N 47°35' W 122°21'0 0.0
2017-Oct-13 01:30N 47°35' W 122°21'0 0.0
2017-Oct-13 01:00N 47°35' W 122°21'0 0.0
2017-Oct-13 00:30N 47°35' W 122°21'0 0.0
2017-Oct-13 00:00N 47°35' W 122°21'0 0.0
2017-Oct-12 23:30N 47°35' W 122°21'0 0.0
2017-Oct-12 23:00N 47°35' W 122°21'0 0.0
2017-Oct-12 22:30N 47°35' W 122°21'0 0.0
2017-Oct-12 22:00N 47°35' W 122°21'0 0.0
2017-Oct-12 21:30N 47°35' W 122°21'0 0.0
2017-Oct-12 21:00N 47°35' W 122°21'0 0.0
2017-Oct-12 20:30N 47°35' W 122°21'0 0.0
2017-Oct-12 20:00N 47°35' W 122°21'0 0.0
2017-Oct-12 19:30N 47°35' W 122°21'0 0.0
2017-Oct-12 19:00N 47°35' W 122°21'0 0.0
2017-Oct-12 18:30N 47°35' W 122°21'0 0.0
2017-Oct-12 18:00N 47°35' W 122°21'0 0.0
2017-Oct-12 17:30N 47°35' W 122°21'0 0.0
2017-Oct-12 17:00N 47°35' W 122°21'0 0.1
2017-Oct-12 16:30N 47°35' W 122°21'0 0.7
2017-Oct-12 16:00N 47°36' W 122°21'3 6.0
2017-Oct-12 15:30N 47°37' W 122°25'4 7.0
2017-Oct-12 15:00N 47°40' W 122°28'4 7.1
2017-Oct-12 14:30N 47°43' W 122°27'4 7.2
2017-Oct-12 14:00N 47°47' W 122°27'4 7.3
2017-Oct-12 13:30N 47°51' W 122°28'4 7.4
2017-Oct-12 13:00N 47°54' W 122°30'4 7.1
2017-Oct-12 12:30N 47°57' W 122°33'3 6.8
2017-Oct-12 12:00N 47°59' W 122°37'3 6.1
2017-Oct-12 11:30N 48°02' W 122°39'3 5.3
2017-Oct-12 10:57N 48°05' W 122°40'3 4.6
2017-Oct-12 10:20N 48°07' W 122°42'2 4.4
2017-Oct-12 09:59N 48°09' W 122°43'10 4.2
2017-Oct-12 07:41N 48°18' W 122°48'3 8.0
2017-Oct-12 07:21N 48°21' W 122°47'3 7.9
2017-Oct-12 07:00N 48°23' W 122°45'4 8.5
2017-Oct-12 06:30N 48°27' W 122°45'4 8.5
2017-Oct-12 06:00N 48°32' W 122°45'4 8.4
2017-Oct-12 05:30N 48°36' W 122°45'4 7.7
2017-Oct-12 05:00N 48°39' W 122°44'4 7.3
2017-Oct-12 04:30N 48°43' W 122°45'4 7.0
2017-Oct-12 03:54N 48°46' W 122°50'3 7.6
2017-Oct-12 03:30N 48°48' W 122°54'4 7.8
2017-Oct-12 02:56N 48°50' W 122°59'3 7.2
2017-Oct-12 02:30N 48°52' W 123°03'3 6.8
2017-Oct-12 02:00N 48°54' W 123°07'4 7.5
2017-Oct-12 01:30N 48°56' W 123°12'4 7.4
2017-Oct-12 01:00N 48°59' W 123°16'4 7.5
2017-Oct-12 00:30N 49°01' W 123°20'4 8.0
2017-Oct-12 00:00N 49°04' W 123°24'4 7.6
2017-Oct-11 23:30N 49°08' W 123°24'4 7.8
2017-Oct-11 23:00N 49°12' W 123°22'4 7.7
2017-Oct-11 22:30N 49°15' W 123°20'4 7.1
2017-Oct-11 22:00N 49°18' W 123°17'4 7.3
2017-Oct-11 21:30N 49°19' W 123°12'3 6.9
2017-Oct-11 21:00N 49°18' W 123°07'3 5.8
2017-Oct-11 20:31N 49°18' W 123°03'3 5.6
2017-Oct-11 20:00N 49°18' W 122°58'0 0.4
2017-Oct-11 19:30N 49°17' W 122°58'0 0.0
2017-Oct-11 19:00N 49°17' W 122°58'0 0.0
2017-Oct-11 18:31N 49°17' W 122°58'0 0.0
2017-Oct-11 18:00N 49°17' W 122°58'0 0.0
2017-Oct-11 17:30N 49°17' W 122°58'0 0.0
2017-Oct-11 17:00N 49°17' W 122°58'0 0.0
2017-Oct-11 00:00N 49°17' W 122°58'0 0.0
2017-Oct-10 23:30N 49°17' W 122°58'0 0.0
2017-Oct-10 23:00N 49°17' W 122°58'0 0.0
2017-Oct-10 22:30N 49°17' W 122°58'0 0.0
2017-Oct-10 22:00N 49°17' W 122°58'0 0.0
2017-Oct-10 21:30N 49°17' W 122°58'0 0.0
2017-Oct-10 21:00N 49°17' W 122°58'0 0.0
2017-Oct-10 20:30N 49°17' W 122°58'0 0.0
2017-Oct-10 20:00N 49°17' W 122°58'0 0.0
2017-Oct-10 19:30N 49°17' W 122°58'  
2017-Oct-06 14:58N 49°17' W 122°58'1 2.7
2017-Oct-06 14:30N 49°18' W 123°00'1 1.6
2017-Oct-06 14:00N 49°18' W 122°59'1 1.7
2017-Oct-06 13:30N 49°18' W 122°58'3 5.6
2017-Oct-06 13:00N 49°18' W 123°02'3 6.8
2017-Oct-06 12:30N 49°18' W 123°07'3 5.5
2017-Oct-06 12:00N 49°19' W 123°11'2 4.7
2017-Oct-06 11:30N 49°18' W 123°15'2 4.8
2017-Oct-06 11:00N 49°17' W 123°18'3 5.2
2017-Oct-06 10:30N 49°14' W 123°18'3 5.2
2017-Oct-06 10:00N 49°12' W 123°19'2 5.1
2017-Oct-06 09:30N 49°09' W 123°19'3 5.7
2017-Oct-06 09:00N 49°06' W 123°20'3 5.1
2017-Oct-06 08:30N 49°04' W 123°19'3 6.1
2017-Oct-06 08:00N 49°02' W 123°16'3 5.5
2017-Oct-06 07:30N 48°60' W 123°13'2 3.9
2017-Oct-06 07:00N 48°59' W 123°10'2 3.5
2017-Oct-06 06:29N 48°57' W 123°08'2 3.6
2017-Oct-06 06:00N 48°56' W 123°06'2 4.1
2017-Oct-06 05:30N 48°55' W 123°04'2 3.9
2017-Oct-06 05:00N 48°54' W 123°02'2 3.3
2017-Oct-06 04:30N 48°52' W 123°00'2 3.3
2017-Oct-06 04:00N 48°51' W 122°58'2 4.3
2017-Oct-06 03:30N 48°50' W 122°56'2 4.2
2017-Oct-06 02:59N 48°49' W 122°53'2 4.0
2017-Oct-06 02:30N 48°47' W 122°51'2 4.1
2017-Oct-06 02:00N 48°46' W 122°48'2 4.7
2017-Oct-06 01:29N 48°45' W 122°45'3 5.4
2017-Oct-06 01:00N 48°43' W 122°44'3 5.4
2017-Oct-06 00:30N 48°40' W 122°42'3 5.5
2017-Oct-06 00:00N 48°38' W 122°44'3 6.7
2017-Oct-05 23:30N 48°35' W 122°45'4 7.1
2017-Oct-05 23:00N 48°31' W 122°44'3 6.9
2017-Oct-05 22:30N 48°28' W 122°44'3 5.8
2017-Oct-05 21:58N 48°24' W 122°44'4 5.2
2017-Oct-05 21:15N 48°21' W 122°45'1 4.6
2017-Oct-05 20:59N 48°20' W 122°46'20 5.5
2017-Oct-05 17:17N 48°00' W 122°36'3 9.4
2017-Oct-05 17:00N 47°58' W 122°34'12 7.8
2017-Oct-05 15:30N 47°48' W 122°26'4 7.7
2017-Oct-05 15:00N 47°44' W 122°26'4 7.7
2017-Oct-05 14:30N 47°40' W 122°27'4 7.4
2017-Oct-05 14:00N 47°36' W 122°27'4 7.3
2017-Oct-05 13:30N 47°33' W 122°26'4 7.2
2017-Oct-05 13:00N 47°29' W 122°25'3 6.9
2017-Oct-05 12:30N 47°26' W 122°23'3 6.6
2017-Oct-05 12:00N 47°23' W 122°21'3 6.5
2017-Oct-05 11:30N 47°21' W 122°24'3 6.3
2017-Oct-05 11:00N 47°18' W 122°27'1 2.8
2017-Oct-05 10:29N 47°17' W 122°26'1 2.5
2017-Oct-05 10:00N 47°17' W 122°24'0 0.0
2017-Oct-05 01:31N 47°17' W 122°24'0 3.6
2017-Oct-05 01:24N 47°17' W 122°25'1 2.9
2017-Oct-05 01:00N 47°18' W 122°26'1 2.2
2017-Oct-05 00:30N 47°18' W 122°28'1 2.8
2017-Oct-05 00:00N 47°20' W 122°28'2 4.0
2017-Oct-04 23:30N 47°21' W 122°26'2 4.0
2017-Oct-04 23:00N 47°22' W 122°23'2 3.4
2017-Oct-04 22:30N 47°24' W 122°22'3 6.2
2017-Oct-04 22:00N 47°26' W 122°25'3 6.4
2017-Oct-04 21:30N 47°30' W 122°26'3 7.0
2017-Oct-04 21:00N 47°33' W 122°27'3 6.8
2017-Oct-04 20:30N 47°36' W 122°28'3 6.7
2017-Oct-04 20:00N 47°40' W 122°28'3 6.6
2017-Oct-04 19:30N 47°43' W 122°28'3 6.4
2017-Oct-04 19:00N 47°46' W 122°27'3 6.5
2017-Oct-04 18:30N 47°49' W 122°28'3 6.6
2017-Oct-04 18:00N 47°52' W 122°29'3 6.0
2017-Oct-04 17:30N 47°55' W 122°31'3 5.6
2017-Oct-04 17:00N 47°57' W 122°34'3 5.6
2017-Oct-04 16:30N 47°59' W 122°37'2 5.0
2017-Oct-04 16:00N 48°01' W 122°38'2 4.6
2017-Oct-04 15:29N 48°04' W 122°39'4 4.5
2017-Oct-04 14:34N 48°08' W 122°42'1 3.6
2017-Oct-04 14:24N 48°08' W 122°43'5 4.4
2017-Oct-04 13:17N 48°11' W 122°48'2 6.5
2017-Oct-04 12:59N 48°13' W 122°49'4 7.7
2017-Oct-04 12:24N 48°17' W 122°48'3 7.8
2017-Oct-04 12:00N 48°20' W 122°46'4 7.5
2017-Oct-04 11:29N 48°24' W 122°45'4 7.3
2017-Oct-04 11:00N 48°28' W 122°45'4 7.2
2017-Oct-04 10:30N 48°31' W 122°45'3 6.7
2017-Oct-04 10:00N 48°35' W 122°45'3 6.5
2017-Oct-04 09:30N 48°38' W 122°44'3 6.5
2017-Oct-04 09:00N 48°41' W 122°44'4 7.2
2017-Oct-04 08:30N 48°44' W 122°47'4 7.2
2017-Oct-04 07:59N 48°46' W 122°51'4 8.5
2017-Oct-04 07:29N 48°49' W 122°57'4 8.7
2017-Oct-04 06:58N 48°51' W 123°02'4 8.5
2017-Oct-04 06:30N 48°54' W 123°07'4 8.1
2017-Oct-04 06:00N 48°56' W 123°12'4 8.2
2017-Oct-04 05:30N 48°59' W 123°16'4 8.5
2017-Oct-04 05:00N 49°02' W 123°21'4 8.1
2017-Oct-04 04:30N 49°06' W 123°23'4 8.1
2017-Oct-04 04:00N 49°10' W 123°23'4 8.1
2017-Oct-04 03:30N 49°14' W 123°21'4 7.9
2017-Oct-04 03:00N 49°17' W 123°19'4 7.3
2017-Oct-04 02:30N 49°19' W 123°14'3 7.0
2017-Oct-04 02:00N 49°19' W 123°09'3 6.8
2017-Oct-04 01:30N 49°18' W 123°04'3 5.1
2017-Oct-04 01:00N 49°18' W 123°00'0 0.0
2017-Oct-04 00:30N 49°18' W 123°00'  
Track history (hours):
 
Tides and Currents Weather Stations Pressure Air Temp Water Temp Dewpoint Dewpoint Depression Visibility Wind Speed Wind Dir Waves Ship Positions

Island Tugger

Last reported at 2017-Oct-14 00:09 UTC. Time now 2017-Oct-19 11:26 UTC.
Position N 49°17' W 122°58'.

Length 32 m; draft 4.3 m.

Type: Tug. MMSI: 316015269.

Date/timePositionNaut miles runAvg speedWind from/ knotsBaromVisibWave heightAir tempDewpointWater temp
2017-Oct-14 00:09N 49°17' W 122°58'0 0.0
2017-Oct-14 00:00N 49°17' W 122°58'0 0.0
2017-Oct-13 23:28N 49°17' W 122°58'0 0.0
2017-Oct-13 23:00N 49°17' W 122°58'0 0.0
2017-Oct-13 22:30N 49°17' W 122°58'0 0.2
2017-Oct-13 22:00N 49°18' W 122°58'2 4.6
2017-Oct-13 21:30N 49°18' W 123°02'2 3.5
2017-Oct-13 21:00N 49°18' W 123°05'3 6.9
2017-Oct-13 20:30N 49°19' W 123°10'4 7.0
2017-Oct-13 20:00N 49°19' W 123°15'3 7.0
2017-Oct-13 19:30N 49°16' W 123°18'4 7.7
2017-Oct-13 19:00N 49°12' W 123°19'4 7.5
2017-Oct-13 18:30N 49°08' W 123°20'4 7.1
2017-Oct-13 17:59N 49°05' W 123°20'4 8.1
2017-Oct-13 17:30N 49°02' W 123°16'4 8.1
2017-Oct-13 17:00N 48°59' W 123°11'4 7.5
2017-Oct-13 16:30N 48°56' W 123°07'4 7.2
2017-Oct-13 16:00N 48°54' W 123°03'4 7.4
2017-Oct-13 15:29N 48°51' W 122°58'4 7.3
2017-Oct-13 14:59N 48°49' W 122°54'4 7.3
2017-Oct-13 14:30N 48°47' W 122°50'4 7.1
2017-Oct-13 13:54N 48°44' W 122°45'3 6.7
2017-Oct-13 13:30N 48°42' W 122°43'3 6.2
2017-Oct-13 13:00N 48°39' W 122°43'3 5.6
2017-Oct-13 12:30N 48°36' W 122°45'3 5.1
2017-Oct-13 12:00N 48°34' W 122°45'2 4.8
2017-Oct-13 11:30N 48°31' W 122°44'2 4.9
2017-Oct-13 11:00N 48°29' W 122°44'2 5.0
2017-Oct-13 10:30N 48°26' W 122°44'3 5.4
2017-Oct-13 09:59N 48°24' W 122°44'3 5.9
2017-Oct-13 09:28N 48°21' W 122°45'19 7.5
2017-Oct-13 06:55N 48°02' W 122°38'3 8.1
2017-Oct-13 06:30N 47°59' W 122°35'4 7.9
2017-Oct-13 06:00N 47°57' W 122°31'4 7.4
2017-Oct-13 05:30N 47°53' W 122°28'4 7.7
2017-Oct-13 05:00N 47°50' W 122°27'4 7.9
2017-Oct-13 04:30N 47°46' W 122°26'4 7.7
2017-Oct-13 04:00N 47°42' W 122°27'4 7.2
2017-Oct-13 03:30N 47°38' W 122°26'4 7.5
2017-Oct-13 03:00N 47°36' W 122°22'1 1.4
2017-Oct-13 02:30N 47°35' W 122°21'0 0.0
2017-Oct-13 02:00N 47°35' W 122°21'0 0.0
2017-Oct-13 01:30N 47°35' W 122°21'0 0.0
2017-Oct-13 01:00N 47°35' W 122°21'0 0.0
2017-Oct-13 00:30N 47°35' W 122°21'0 0.0
2017-Oct-13 00:00N 47°35' W 122°21'0 0.0
2017-Oct-12 23:30N 47°35' W 122°21'0 0.0
2017-Oct-12 23:00N 47°35' W 122°21'0 0.0
2017-Oct-12 22:30N 47°35' W 122°21'0 0.0
2017-Oct-12 22:00N 47°35' W 122°21'0 0.0
2017-Oct-12 21:30N 47°35' W 122°21'0 0.0
2017-Oct-12 21:00N 47°35' W 122°21'0 0.0
2017-Oct-12 20:30N 47°35' W 122°21'0 0.0
2017-Oct-12 20:00N 47°35' W 122°21'0 0.0
2017-Oct-12 19:30N 47°35' W 122°21'0 0.0
2017-Oct-12 19:00N 47°35' W 122°21'0 0.0
2017-Oct-12 18:30N 47°35' W 122°21'0 0.0
2017-Oct-12 18:00N 47°35' W 122°21'0 0.0
2017-Oct-12 17:30N 47°35' W 122°21'0 0.0
2017-Oct-12 17:00N 47°35' W 122°21'0 0.1
2017-Oct-12 16:30N 47°35' W 122°21'0 0.7
2017-Oct-12 16:00N 47°36' W 122°21'3 6.0
2017-Oct-12 15:30N 47°37' W 122°25'4 7.0
2017-Oct-12 15:00N 47°40' W 122°28'4 7.1
2017-Oct-12 14:30N 47°43' W 122°27'4 7.2
2017-Oct-12 14:00N 47°47' W 122°27'4 7.3
2017-Oct-12 13:30N 47°51' W 122°28'4 7.4
2017-Oct-12 13:00N 47°54' W 122°30'4 7.1
2017-Oct-12 12:30N 47°57' W 122°33'3 6.8
2017-Oct-12 12:00N 47°59' W 122°37'3 6.1
2017-Oct-12 11:30N 48°02' W 122°39'3 5.3
2017-Oct-12 10:57N 48°05' W 122°40'3 4.6
2017-Oct-12 10:20N 48°07' W 122°42'2 4.4
2017-Oct-12 09:59N 48°09' W 122°43'10 4.2
2017-Oct-12 07:41N 48°18' W 122°48'3 8.0
2017-Oct-12 07:21N 48°21' W 122°47'3 7.9
2017-Oct-12 07:00N 48°23' W 122°45'4 8.5
2017-Oct-12 06:30N 48°27' W 122°45'4 8.5
2017-Oct-12 06:00N 48°32' W 122°45'4 8.4
2017-Oct-12 05:30N 48°36' W 122°45'4 7.7
2017-Oct-12 05:00N 48°39' W 122°44'4 7.3
2017-Oct-12 04:30N 48°43' W 122°45'4 7.0
2017-Oct-12 03:54N 48°46' W 122°50'3 7.6
2017-Oct-12 03:30N 48°48' W 122°54'4 7.8
2017-Oct-12 02:56N 48°50' W 122°59'3 7.2
2017-Oct-12 02:30N 48°52' W 123°03'3 6.8
2017-Oct-12 02:00N 48°54' W 123°07'4 7.5
2017-Oct-12 01:30N 48°56' W 123°12'4 7.4
2017-Oct-12 01:00N 48°59' W 123°16'4 7.5
2017-Oct-12 00:30N 49°01' W 123°20'4 8.0
2017-Oct-12 00:00N 49°04' W 123°24'4 7.6
2017-Oct-11 23:30N 49°08' W 123°24'4 7.8
2017-Oct-11 23:00N 49°12' W 123°22'4 7.7
2017-Oct-11 22:30N 49°15' W 123°20'4 7.1
2017-Oct-11 22:00N 49°18' W 123°17'4 7.3
2017-Oct-11 21:30N 49°19' W 123°12'3 6.9
2017-Oct-11 21:00N 49°18' W 123°07'3 5.8
2017-Oct-11 20:31N 49°18' W 123°03'3 5.6
2017-Oct-11 20:00N 49°18' W 122°58'0 0.4
2017-Oct-11 19:30N 49°17' W 122°58'0 0.0
2017-Oct-11 19:00N 49°17' W 122°58'0 0.0
2017-Oct-11 18:31N 49°17' W 122°58'0 0.0
2017-Oct-11 18:00N 49°17' W 122°58'0 0.0
2017-Oct-11 17:30N 49°17' W 122°58'0 0.0
2017-Oct-11 17:00N 49°17' W 122°58'0 0.0
2017-Oct-11 00:00N 49°17' W 122°58'0 0.0
2017-Oct-10 23:30N 49°17' W 122°58'0 0.0
2017-Oct-10 23:00N 49°17' W 122°58'0 0.0
2017-Oct-10 22:30N 49°17' W 122°58'0 0.0
2017-Oct-10 22:00N 49°17' W 122°58'0 0.0
2017-Oct-10 21:30N 49°17' W 122°58'0 0.0
2017-Oct-10 21:00N 49°17' W 122°58'0 0.0
2017-Oct-10 20:30N 49°17' W 122°58'0 0.0
2017-Oct-10 20:00N 49°17' W 122°58'0 0.0
2017-Oct-10 19:30N 49°17' W 122°58'  
2017-Oct-06 14:58N 49°17' W 122°58'1 2.7
2017-Oct-06 14:30N 49°18' W 123°00'1 1.6
2017-Oct-06 14:00N 49°18' W 122°59'1 1.7
2017-Oct-06 13:30N 49°18' W 122°58'3 5.6
2017-Oct-06 13:00N 49°18' W 123°02'3 6.8
2017-Oct-06 12:30N 49°18' W 123°07'3 5.5
2017-Oct-06 12:00N 49°19' W 123°11'2 4.7
2017-Oct-06 11:30N 49°18' W 123°15'2 4.8
2017-Oct-06 11:00N 49°17' W 123°18'3 5.2
2017-Oct-06 10:30N 49°14' W 123°18'3 5.2
2017-Oct-06 10:00N 49°12' W 123°19'2 5.1
2017-Oct-06 09:30N 49°09' W 123°19'3 5.7
2017-Oct-06 09:00N 49°06' W 123°20'3 5.1
2017-Oct-06 08:30N 49°04' W 123°19'3 6.1
2017-Oct-06 08:00N 49°02' W 123°16'3 5.5
2017-Oct-06 07:30N 48°60' W 123°13'2 3.9
2017-Oct-06 07:00N 48°59' W 123°10'2 3.5
2017-Oct-06 06:29N 48°57' W 123°08'2 3.6
2017-Oct-06 06:00N 48°56' W 123°06'2 4.1
2017-Oct-06 05:30N 48°55' W 123°04'2 3.9
2017-Oct-06 05:00N 48°54' W 123°02'2 3.3
2017-Oct-06 04:30N 48°52' W 123°00'2 3.3
2017-Oct-06 04:00N 48°51' W 122°58'2 4.3
2017-Oct-06 03:30N 48°50' W 122°56'2 4.2
2017-Oct-06 02:59N 48°49' W 122°53'2 4.0
2017-Oct-06 02:30N 48°47' W 122°51'2 4.1
2017-Oct-06 02:00N 48°46' W 122°48'2 4.7
2017-Oct-06 01:29N 48°45' W 122°45'3 5.4
2017-Oct-06 01:00N 48°43' W 122°44'3 5.4
2017-Oct-06 00:30N 48°40' W 122°42'3 5.5
2017-Oct-06 00:00N 48°38' W 122°44'3 6.7
2017-Oct-05 23:30N 48°35' W 122°45'4 7.1
2017-Oct-05 23:00N 48°31' W 122°44'3 6.9
2017-Oct-05 22:30N 48°28' W 122°44'3 5.8
2017-Oct-05 21:58N 48°24' W 122°44'4 5.2
2017-Oct-05 21:15N 48°21' W 122°45'1 4.6
2017-Oct-05 20:59N 48°20' W 122°46'20 5.5
2017-Oct-05 17:17N 48°00' W 122°36'3 9.4
2017-Oct-05 17:00N 47°58' W 122°34'12 7.8
2017-Oct-05 15:30N 47°48' W 122°26'4 7.7
2017-Oct-05 15:00N 47°44' W 122°26'4 7.7
2017-Oct-05 14:30N 47°40' W 122°27'4 7.4
2017-Oct-05 14:00N 47°36' W 122°27'4 7.3
2017-Oct-05 13:30N 47°33' W 122°26'4 7.2
2017-Oct-05 13:00N 47°29' W 122°25'3 6.9
2017-Oct-05 12:30N 47°26' W 122°23'3 6.6
2017-Oct-05 12:00N 47°23' W 122°21'3 6.5
2017-Oct-05 11:30N 47°21' W 122°24'3 6.3
2017-Oct-05 11:00N 47°18' W 122°27'1 2.8
2017-Oct-05 10:29N 47°17' W 122°26'1 2.5
2017-Oct-05 10:00N 47°17' W 122°24'0 0.0
2017-Oct-05 01:31N 47°17' W 122°24'0 3.6
2017-Oct-05 01:24N 47°17' W 122°25'1 2.9
2017-Oct-05 01:00N 47°18' W 122°26'1 2.2
2017-Oct-05 00:30N 47°18' W 122°28'1 2.8
2017-Oct-05 00:00N 47°20' W 122°28'2 4.0
2017-Oct-04 23:30N 47°21' W 122°26'2 4.0
2017-Oct-04 23:00N 47°22' W 122°23'2 3.4
2017-Oct-04 22:30N 47°24' W 122°22'3 6.2
2017-Oct-04 22:00N 47°26' W 122°25'3 6.4
2017-Oct-04 21:30N 47°30' W 122°26'3 7.0
2017-Oct-04 21:00N 47°33' W 122°27'3 6.8
2017-Oct-04 20:30N 47°36' W 122°28'3 6.7
2017-Oct-04 20:00N 47°40' W 122°28'3 6.6
2017-Oct-04 19:30N 47°43' W 122°28'3 6.4
2017-Oct-04 19:00N 47°46' W 122°27'3 6.5
2017-Oct-04 18:30N 47°49' W 122°28'3 6.6
2017-Oct-04 18:00N 47°52' W 122°29'3 6.0
2017-Oct-04 17:30N 47°55' W 122°31'3 5.6
2017-Oct-04 17:00N 47°57' W 122°34'3 5.6
2017-Oct-04 16:30N 47°59' W 122°37'2 5.0
2017-Oct-04 16:00N 48°01' W 122°38'2 4.6
2017-Oct-04 15:29N 48°04' W 122°39'4 4.5
2017-Oct-04 14:34N 48°08' W 122°42'1 3.6
2017-Oct-04 14:24N 48°08' W 122°43'5 4.4
2017-Oct-04 13:17N 48°11' W 122°48'2 6.5
2017-Oct-04 12:59N 48°13' W 122°49'4 7.7
2017-Oct-04 12:24N 48°17' W 122°48'3 7.8
2017-Oct-04 12:00N 48°20' W 122°46'4 7.5
2017-Oct-04 11:29N 48°24' W 122°45'4 7.3
2017-Oct-04 11:00N 48°28' W 122°45'4 7.2
2017-Oct-04 10:30N 48°31' W 122°45'3 6.7
2017-Oct-04 10:00N 48°35' W 122°45'3 6.5
2017-Oct-04 09:30N 48°38' W 122°44'3 6.5
2017-Oct-04 09:00N 48°41' W 122°44'4 7.2
2017-Oct-04 08:30N 48°44' W 122°47'4 7.2
2017-Oct-04 07:59N 48°46' W 122°51'4 8.5
2017-Oct-04 07:29N 48°49' W 122°57'4 8.7
2017-Oct-04 06:58N 48°51' W 123°02'4 8.5
2017-Oct-04 06:30N 48°54' W 123°07'4 8.1
2017-Oct-04 06:00N 48°56' W 123°12'4 8.2
2017-Oct-04 05:30N 48°59' W 123°16'4 8.5
2017-Oct-04 05:00N 49°02' W 123°21'4 8.1
2017-Oct-04 04:30N 49°06' W 123°23'4 8.1
2017-Oct-04 04:00N 49°10' W 123°23'4 8.1
2017-Oct-04 03:30N 49°14' W 123°21'4 7.9
2017-Oct-04 03:00N 49°17' W 123°19'4 7.3
2017-Oct-04 02:30N 49°19' W 123°14'3 7.0
2017-Oct-04 02:00N 49°19' W 123°09'3 6.8
2017-Oct-04 01:30N 49°18' W 123°04'3 5.1
2017-Oct-04 01:00N 49°18' W 123°00'0 0.0
2017-Oct-04 00:30N 49°18' W 123°00'  

Dump ship's entire track history